Time;durP1;ratioP1;P1;durP2;ratioP2;P2;SDS_P1;SDS_P2;PMS_P1;PMS_P2;Temp;Humidity;BMP_temperature;BMP_pressure;BME280_temperature;BME280_humidity;BME280_pressure;Samples;Min_cycle;Max_cycle;Signal;HPM_P1;HPM_P2
2022/12/18 00:01:17;;;;;;;5.35;4.55;;;;;;;6.96;70.72;94583.47;4994347;28;20057;-73
2022/12/18 00:03:43;;;;;;;5.80;4.63;;;;;;;6.68;70.87;94572.47;4996308;28;20116;-74
2022/12/18 00:06:09;;;;;;;6.78;5.15;;;;;;;6.81;71.01;94593.03;4995728;28;20102;-74
2022/12/18 00:08:35;;;;;;;6.22;4.75;;;;;;;6.48;70.98;94572.53;4995862;28;20026;-73
2022/12/18 00:11:05;;;;;;;7.00;5.50;;;;;;;6.43;71.54;94586.53;4994347;28;20499;-74
2022/12/18 00:13:30;;;;;;;6.00;5.35;;;;;;;6.56;71.21;94587.81;5010966;28;20034;-76
2022/12/18 00:16:02;;;;;;;8.35;6.43;;;;;;;6.27;71.96;94597.41;4994076;28;20046;-75
2022/12/18 00:18:27;;;;;;;8.35;6.40;;;;;;;6.33;71.60;94585.78;4995723;28;20133;-74
2022/12/18 00:20:53;;;;;;;6.65;5.60;;;;;;;6.29;71.57;94595.28;4994972;28;20508;-77
2022/12/18 00:23:18;;;;;;;6.85;5.95;;;;;;;6.35;71.56;94607.44;4996123;28;20082;-74
2022/12/18 00:25:43;;;;;;;7.60;5.40;;;;;;;6.29;71.41;94606.66;4995046;28;20034;-74
2022/12/18 00:28:09;;;;;;;6.78;5.45;;;;;;;6.41;71.06;94611.63;4995564;28;20459;-74
2022/12/18 00:30:34;;;;;;;7.38;5.55;;;;;;;6.47;70.76;94607.13;4991678;28;20155;-74
2022/12/18 00:32:59;;;;;;;8.48;5.38;;;;;;;6.63;70.55;94606.06;4994776;28;20032;-74
2022/12/18 00:35:25;;;;;;;9.15;5.55;;;;;;;6.61;70.18;94605.53;4993471;28;20080;-74
2022/12/18 00:37:50;;;;;;;6.78;6.10;;;;;;;6.69;69.23;94605.78;4993915;28;20045;-75
2022/12/18 00:40:15;;;;;;;9.23;5.70;;;;;;;6.69;69.08;94611.06;4992810;28;20095;-74
2022/12/18 00:42:56;;;;;;;6.45;5.63;;;;;;;6.64;68.77;94618.22;4991997;28;20039;-75
2022/12/18 00:45:31;;;;;;;8.65;6.10;;;;;;;6.49;69.27;94615.59;4992147;28;20112;-75
2022/12/18 00:47:57;;;;;;;7.78;5.68;;;;;;;6.35;69.60;94623.28;4989685;28;20026;-74
2022/12/18 00:50:24;;;;;;;6.40;5.40;;;;;;;6.35;69.96;94624.09;4985493;28;20526;-75
2022/12/18 00:52:49;;;;;;;7.78;6.18;;;;;;;6.39;70.09;94621.69;4994586;28;20062;-74
2022/12/18 00:55:15;;;;;;;8.15;5.45;;;;;;;6.37;70.08;94621.16;4989976;28;20145;-75
2022/12/18 00:57:40;;;;;;;6.70;5.82;;;;;;;6.47;69.33;94621.16;4994145;28;20153;-75
2022/12/18 01:00:09;;;;;;;7.25;5.72;;;;;;;6.43;68.54;94628.03;4990754;28;20558;-74
2022/12/18 01:02:34;;;;;;;7.22;6.10;;;;;;;6.40;68.83;94631.22;4992466;28;20050;-74
2022/12/18 01:05:00;;;;;;;7.05;5.55;;;;;;;6.28;69.02;94631.47;4990742;28;20045;-74
2022/12/18 01:07:26;;;;;;;7.80;6.60;;;;;;;6.13;69.10;94628.03;4992159;28;20038;-75
2022/12/18 01:09:51;;;;;;;8.57;6.18;;;;;;;6.39;68.59;94643.63;4993538;28;20026;-74
2022/12/18 01:12:17;;;;;;;9.48;6.28;;;;;;;6.26;68.81;94652.06;4992595;28;20809;-74
2022/12/18 01:14:42;;;;;;;8.65;6.63;;;;;;;5.99;68.49;94644.41;4991282;28;20092;-75
2022/12/18 01:17:07;;;;;;;8.15;6.43;;;;;;;5.86;68.19;94650.22;4993376;28;20034;-74
2022/12/18 01:19:33;;;;;;;8.57;6.00;;;;;;;5.55;68.82;94622.19;4992426;28;20095;-75
2022/12/18 01:21:59;;;;;;;7.15;5.82;;;;;;;5.75;69.23;94653.91;4993823;28;20038;-74
2022/12/18 01:24:24;;;;;;;9.63;6.65;;;;;;;5.85;68.57;94651.28;4994281;28;20688;-74
2022/12/18 01:26:50;;;;;;;8.27;6.30;;;;;;;5.80;69.10;94661.81;4994750;28;20121;-74
2022/12/18 01:29:15;;;;;;;7.40;6.45;;;;;;;5.84;68.72;94652.31;4990749;28;20458;-74
2022/12/18 01:31:40;;;;;;;8.75;6.80;;;;;;;5.88;68.15;94640.16;4991274;28;20044;-75
2022/12/18 01:34:06;;;;;;;8.98;7.15;;;;;;;5.72;68.42;94654.44;4994283;28;20036;-75
2022/12/18 01:36:33;;;;;;;9.73;7.25;;;;;;;5.67;68.20;94646.50;4994464;28;20041;-75
2022/12/18 01:39:01;;;;;;;8.63;7.00;;;;;;;5.86;68.28;94675.81;4994125;28;20022;-74
2022/12/18 01:42:01;;;;;;;11.07;7.38;;;;;;;5.85;68.63;94663.69;4995432;28;20042;-75
2022/12/18 01:44:52;;;;;;;9.35;7.55;;;;;;;5.77;68.30;94667.63;4993988;28;20042;-76
2022/12/18 01:47:30;;;;;;;10.50;8.48;;;;;;;5.42;69.12;94672.81;4990787;28;20041;-76
2022/12/18 01:49:58;;;;;;;10.48;7.80;;;;;;;5.59;68.58;94660.19;4992952;28;20073;-76
2022/12/18 01:52:28;;;;;;;10.50;7.63;;;;;;;5.47;68.20;94651.75;4990561;28;20038;-74
2022/12/18 01:54:55;;;;;;;11.55;8.77;;;;;;;5.62;68.22;94674.72;4992034;28;20669;-76
2022/12/18 01:57:21;;;;;;;10.32;8.40;;;;;;;5.69;67.80;94660.22;4992218;28;20037;-74
2022/12/18 01:59:52;;;;;;;10.70;8.10;;;;;;;5.57;68.07;94667.59;4994247;28;20025;-74
2022/12/18 02:02:18;;;;;;;12.05;9.23;;;;;;;5.66;68.15;94670.50;4990660;28;20034;-74
2022/12/18 02:04:44;;;;;;;10.70;8.32;;;;;;;5.67;67.34;94661.53;4991269;28;20524;-74
2022/12/18 02:07:38;;;;;;;12.32;9.23;;;;;;;5.68;67.53;94674.47;4992360;28;20038;-75
2022/12/18 02:10:10;;;;;;;11.50;8.27;;;;;;;5.54;67.92;94673.38;4992027;28;20100;-74
2022/12/18 02:12:49;;;;;;;11.07;9.30;;;;;;;5.64;68.21;94677.88;4989954;28;20037;-74
2022/12/18 02:15:32;;;;;;;12.95;10.13;;;;;;;5.67;68.05;94687.94;4985791;28;20103;-75
2022/12/18 02:18:16;;;;;;;10.65;8.55;;;;;;;5.69;67.88;94678.69;4991851;28;20025;-75
2022/12/18 02:21:09;;;;;;;12.15;9.18;;;;;;;5.71;67.90;94689.78;4990450;28;20077;-76
2022/12/18 02:23:52;;;;;;;10.07;8.50;;;;;;;5.72;68.26;94701.16;4991289;28;20576;-74
2022/12/18 02:26:34;;;;;;;13.02;8.32;;;;;;;5.63;68.23;94682.38;4991821;28;20044;-75
2022/12/18 02:29:05;;;;;;;11.63;9.23;;;;;;;5.55;68.78;94696.06;4992389;28;20492;-75
2022/12/18 02:31:36;;;;;;;11.13;8.68;;;;;;;5.48;68.93;94682.34;4992110;28;20512;-76
2022/12/18 02:34:05;;;;;;;11.32;9.13;;;;;;;5.31;69.73;94685.19;4992456;28;20041;-75
2022/12/18 02:36:33;;;;;;;10.43;8.18;;;;;;;5.57;68.86;94686.06;4993057;28;20239;-74
2022/12/18 02:39:01;;;;;;;10.35;7.18;;;;;;;5.62;68.77;94709.03;4991467;28;20033;-75
2022/12/18 02:41:28;;;;;;;9.38;7.47;;;;;;;5.63;67.83;94687.66;4991841;28;20034;-74
2022/12/18 02:43:57;;;;;;;10.63;7.90;;;;;;;5.76;67.73;94705.63;4990914;28;21277;-76
2022/12/18 02:46:37;;;;;;;7.25;6.00;;;;;;;5.84;67.05;94699.03;4992795;28;20163;-74
2022/12/18 02:49:36;;;;;;;6.35;5.68;;;;;;;5.78;65.94;94700.09;4990826;28;20042;-74
2022/12/18 02:52:22;;;;;;;9.65;7.03;;;;;;;5.60;66.82;94705.84;4991504;28;20141;-74
2022/12/18 02:55:25;;;;;;;10.68;6.05;;;;;;;5.53;67.08;94708.72;4992462;28;20045;-76
2022/12/18 02:58:14;;;;;;;8.85;6.75;;;;;;;5.34;67.83;94702.31;4994066;28;20037;-74
2022/12/18 03:01:11;;;;;;;9.35;5.60;;;;;;;5.44;67.18;94711.06;4992088;28;20037;-74
2022/12/18 03:03:46;;;;;;;9.43;6.80;;;;;;;5.41;66.99;94705.53;4989054;28;20179;-75
2022/12/18 03:06:23;;;;;;;9.43;6.90;;;;;;;5.37;67.42;94712.38;4992010;28;20580;-75
2022/12/18 03:08:53;;;;;;;6.28;5.65;;;;;;;5.44;66.46;94718.19;4991465;28;20026;-76
2022/12/18 03:12:22;;;;;;;7.60;6.45;;;;;;;5.43;66.33;94720.03;4992990;28;20030;-74
2022/12/18 03:14:06;;;;;;;;;;;;;;;5.30;67.43;94730.28;4991269;28;20043;-74
2022/12/18 03:16:33;;;;;;;7.20;5.47;;;;;;;5.14;67.70;94722.28;4992943;28;19976;-74
2022/12/18 03:19:02;;;;;;;6.95;5.53;;;;;;;5.03;67.42;94725.94;4991545;28;20132;-74
2022/12/18 03:21:42;;;;;;;7.35;6.07;;;;;;;4.88;68.31;94727.69;4991663;28;20041;-74
2022/12/18 03:24:09;;;;;;;6.97;5.13;;;;;;;4.72;69.63;94723.38;4992377;28;20056;-76
2022/12/18 03:26:40;;;;;;;6.13;5.13;;;;;;;4.53;69.67;94704.53;4991550;28;20033;-74
2022/12/18 03:29:16;;;;;;;5.85;4.75;;;;;;;4.55;69.14;94705.88;4996382;28;20045;-74
2022/12/18 03:31:48;;;;;;;6.00;4.80;;;;;;;4.69;69.13;94729.97;4995305;28;20181;-74
2022/12/18 03:34:19;;;;;;;5.55;4.40;;;;;;;4.48;69.10;94707.16;4997358;28;20037;-75
2022/12/18 03:36:45;;;;;;;7.38;4.43;;;;;;;4.51;68.40;94727.72;4994088;28;20042;-75
2022/12/18 03:39:10;;;;;;;5.03;4.32;;;;;;;4.45;68.47;94731.38;4996081;28;20049;-75
2022/12/18 03:41:56;;;;;;;7.03;5.10;;;;;;;4.53;69.18;94755.41;4995223;28;20049;-74
2022/12/18 03:44:40;;;;;;;4.72;4.28;;;;;;;4.36;69.14;94765.25;4996938;28;20046;-75
2022/12/18 03:47:27;;;;;;;8.27;4.90;;;;;;;4.30;69.37;94768.13;4993646;28;20042;-75
2022/12/18 03:50:15;;;;;;;7.03;5.10;;;;;;;4.09;70.09;94764.47;4996424;28;22414;-75
2022/12/18 03:53:05;;;;;;;6.18;5.30;;;;;;;3.96;71.17;94773.56;4996734;28;20041;-76
2022/12/18 03:55:34;;;;;;;5.93;4.60;;;;;;;4.24;70.75;94770.69;4995161;28;20638;-73
2022/12/18 03:58:02;;;;;;;6.60;4.70;;;;;;;4.39;69.25;94771.88;4995490;28;20061;-75
2022/12/18 04:00:29;;;;;;;8.65;6.13;;;;;;;4.10;70.18;94769.50;4994276;28;20400;-75
2022/12/18 04:02:56;;;;;;;6.55;5.20;;;;;;;3.68;71.34;94760.63;4995664;28;20073;-75
2022/12/18 04:05:25;;;;;;;5.25;4.50;;;;;;;3.76;71.57;94773.34;4995684;28;20099;-74
2022/12/18 04:07:52;;;;;;;6.45;4.97;;;;;;;3.77;71.63;94790.75;4994589;28;20037;-74
2022/12/18 04:10:18;;;;;;;7.80;5.85;;;;;;;3.77;71.05;94782.84;4994433;28;20096;-74
2022/12/18 04:12:44;;;;;;;6.45;4.70;;;;;;;3.68;70.61;94797.44;5009663;28;20635;-75
2022/12/18 04:15:11;;;;;;;7.43;5.68;;;;;;;3.56;71.35;94797.59;4995132;28;20662;-75
2022/12/18 04:17:36;;;;;;;7.90;5.45;;;;;;;3.53;71.29;94799.91;4996345;28;20057;-74
2022/12/18 04:20:02;;;;;;;6.20;4.60;;;;;;;3.54;71.73;94802.28;4993818;28;20228;-73
2022/12/18 04:22:27;;;;;;;6.47;5.30;;;;;;;3.48;71.92;94794.59;4997185;28;20661;-73
2022/12/18 04:24:53;;;;;;;7.88;5.72;;;;;;;3.52;72.04;94793.88;4993247;28;20095;-73
2022/12/18 04:27:18;;;;;;;7.20;5.55;;;;;;;3.58;71.67;94786.81;4995744;28;20033;-74
2022/12/18 04:29:44;;;;;;;8.98;5.28;;;;;;;3.79;70.44;94804.44;4995108;28;20022;-73
2022/12/18 04:32:09;;;;;;;6.55;4.78;;;;;;;3.71;69.70;94791.72;4994305;28;20064;-73
2022/12/18 04:34:34;;;;;;;8.18;5.75;;;;;;;3.68;70.13;94803.50;4987169;28;20432;-74
2022/12/18 04:37:00;;;;;;;6.72;5.55;;;;;;;3.83;69.73;94821.31;4994965;28;20444;-72
2022/12/18 04:39:25;;;;;;;9.23;6.35;;;;;;;3.76;69.55;94831.25;4995064;28;20105;-75
2022/12/18 04:41:51;;;;;;;8.70;6.15;;;;;;;3.61;69.35;94828.44;4994315;28;20952;-73
2022/12/18 04:44:16;;;;;;;9.63;6.25;;;;;;;3.58;69.36;94832.31;4995138;28;20088;-74
2022/12/18 04:46:41;;;;;;;10.32;7.30;;;;;;;3.52;69.22;94845.69;4994615;28;20034;-73
2022/12/18 04:49:07;;;;;;;9.40;5.72;;;;;;;3.46;69.53;94842.19;4994905;28;20441;-75
2022/12/18 04:51:32;;;;;;;9.27;6.85;;;;;;;3.40;70.09;94836.06;4995219;28;20111;-74
2022/12/18 04:53:58;;;;;;;8.30;6.32;;;;;;;3.35;69.69;94841.25;4993076;28;20033;-75
2022/12/18 04:56:23;;;;;;;9.15;6.70;;;;;;;3.52;69.67;94856.19;4995941;28;20034;-74
2022/12/18 04:58:48;;;;;;;8.48;6.00;;;;;;;3.57;68.47;94846.53;4993683;28;20037;-73
2022/12/18 05:01:16;;;;;;;8.65;6.13;;;;;;;3.31;68.64;94842.78;4993512;28;20141;-76
2022/12/18 05:03:42;;;;;;;9.02;5.72;;;;;;;3.01;69.52;94839.72;4994484;28;20117;-74
2022/12/18 05:06:08;;;;;;;9.40;7.05;;;;;;;3.02;69.86;94857.06;4992004;28;20864;-74
2022/12/18 05:08:33;;;;;;;7.78;6.53;;;;;;;2.74;70.78;94844.03;4994193;28;23333;-74
2022/12/18 05:11:04;;;;;;;9.15;5.97;;;;;;;2.84;71.08;94875.72;4992247;28;20030;-75
2022/12/18 05:13:29;;;;;;;9.60;6.90;;;;;;;2.88;71.54;94871.56;4994997;28;20030;-74
2022/12/18 05:15:55;;;;;;;9.25;6.95;;;;;;;2.92;71.58;94856.91;4993750;28;20045;-76
2022/12/18 05:18:21;;;;;;;8.32;6.22;;;;;;;3.10;70.64;94855.84;4995257;28;20068;-75
2022/12/18 05:20:46;;;;;;;10.30;7.35;;;;;;;3.11;70.69;94858.25;4992925;28;20590;-75
2022/12/18 05:23:11;;;;;;;10.50;7.18;;;;;;;3.33;70.47;94876.72;4994010;28;20034;-74
2022/12/18 05:25:37;;;;;;;7.97;5.65;;;;;;;3.61;68.45;94875.78;4994384;28;20405;-74
2022/12/18 05:28:05;;;;;;;8.80;6.10;;;;;;;3.46;68.64;94873.75;4993440;28;20695;-74
2022/12/18 05:30:31;;;;;;;10.88;6.38;;;;;;;3.40;68.68;94870.25;4994112;28;20042;-74
2022/12/18 05:32:56;;;;;;;8.02;6.40;;;;;;;3.55;68.18;94890.69;4993146;28;20021;-74
2022/12/18 05:35:21;;;;;;;8.05;5.93;;;;;;;3.51;67.80;94880.91;4993869;28;20661;-75
2022/12/18 05:37:47;;;;;;;9.15;6.72;;;;;;;3.59;66.47;94904.94;4994886;28;20038;-74
2022/12/18 05:40:12;;;;;;;10.45;6.88;;;;;;;3.43;67.23;94905.75;4994776;28;20509;-74
2022/12/18 05:42:38;;;;;;;11.05;6.75;;;;;;;3.25;67.69;94898.16;4994946;28;20042;-74
2022/12/18 05:45:05;;;;;;;9.70;6.05;;;;;;;3.42;67.87;94909.47;4993573;28;20416;-74
2022/12/18 05:47:30;;;;;;;11.60;8.27;;;;;;;3.39;68.47;94915.97;4994512;28;20065;-75
2022/12/18 05:49:56;;;;;;;12.23;9.07;;;;;;;3.46;67.52;94893.97;4992867;28;20063;-75
2022/12/18 05:52:21;;;;;;;11.73;8.35;;;;;;;3.55;67.66;94918.81;4993976;28;20038;-74
2022/12/18 05:54:46;;;;;;;17.02;9.50;;;;;;;3.77;66.87;94919.69;4995077;28;20034;-74
2022/12/18 05:57:12;;;;;;;16.98;11.25;;;;;;;3.79;66.07;94909.69;5008389;28;20108;-75
2022/12/18 05:59:37;;;;;;;16.75;11.88;;;;;;;3.86;66.53;94933.19;4994517;28;20037;-76
2022/12/18 06:02:03;;;;;;;17.13;11.30;;;;;;;3.71;65.74;94918.00;4992245;28;20048;-74
2022/12/18 06:04:31;;;;;;;17.95;12.05;;;;;;;3.87;65.54;94929.53;4992694;28;20065;-74
2022/12/18 06:06:57;;;;;;;15.70;10.55;;;;;;;3.91;65.76;94926.16;4992484;28;20575;-75
2022/12/18 06:09:22;;;;;;;16.23;10.13;;;;;;;3.93;65.57;94941.69;4993040;28;20026;-74
2022/12/18 06:11:48;;;;;;;17.77;11.77;;;;;;;3.86;65.26;94941.09;4993510;28;20427;-74
2022/12/18 06:14:13;;;;;;;13.60;10.20;;;;;;;3.67;66.09;94937.97;4990931;28;20050;-75
2022/12/18 06:16:39;;;;;;;12.18;9.48;;;;;;;3.15;66.24;94840.97;5009402;28;20465;-75
2022/12/18 06:19:05;;;;;;;15.38;9.00;;;;;;;3.78;65.65;94947.56;4993644;28;20049;-75
2022/12/18 06:21:31;;;;;;;12.02;8.75;;;;;;;3.82;65.97;94951.28;4992819;28;20041;-73
2022/12/18 06:23:56;;;;;;;10.60;7.65;;;;;;;3.70;65.32;94940.09;4992556;28;20069;-75
2022/12/18 06:26:22;;;;;;;12.60;8.40;;;;;;;3.59;64.83;94946.25;4992236;28;20157;-75
2022/12/18 06:28:47;;;;;;;13.05;8.20;;;;;;;3.51;65.67;94944.81;4993725;28;20040;-73
2022/12/18 06:31:13;;;;;;;11.38;7.88;;;;;;;3.51;65.20;94950.09;4992724;28;22366;-74
2022/12/18 06:33:38;;;;;;;16.52;8.93;;;;;;;3.32;65.95;94952.19;4991737;28;20500;-76
2022/12/18 06:36:06;;;;;;;12.90;9.27;;;;;;;3.58;65.52;94965.69;4992328;28;20562;-76
2022/12/18 06:38:33;;;;;;;13.60;8.15;;;;;;;3.66;64.79;94970.56;4993225;28;20202;-74
2022/12/18 06:40:58;;;;;;;13.50;8.77;;;;;;;3.53;64.16;94947.19;4992726;28;20472;-75
2022/12/18 06:43:24;;;;;;;11.98;8.25;;;;;;;3.61;64.37;94966.03;4990097;28;20034;-74
2022/12/18 06:45:52;;;;;;;14.35;8.93;;;;;;;3.50;64.93;94959.00;4992659;28;20038;-74
2022/12/18 06:48:19;;;;;;;25.00;13.73;;;;;;;3.60;64.33;94974.16;4993033;28;20448;-74
2022/12/18 06:50:45;;;;;;;34.88;23.58;;;;;;;3.65;63.91;94982.13;4992773;28;20480;-75
2022/12/18 06:53:10;;;;;;;21.58;12.70;;;;;;;3.66;64.09;94978.44;4993527;28;20029;-74
2022/12/18 06:55:36;;;;;;;19.83;13.45;;;;;;;3.58;63.56;94978.84;4991995;28;20527;-75
2022/12/18 06:58:01;;;;;;;15.98;10.60;;;;;;;3.48;63.42;94976.09;5007777;28;20038;-74
2022/12/18 07:00:27;;;;;;;21.27;13.50;;;;;;;3.20;64.29;94984.81;4991780;28;20566;-75
2022/12/18 07:02:52;;;;;;;17.90;12.73;;;;;;;3.47;64.72;94992.91;4992034;28;20377;-76
2022/12/18 07:05:17;;;;;;;15.00;10.80;;;;;;;3.55;63.92;94995.91;4991148;28;20427;-74
2022/12/18 07:07:43;;;;;;;20.02;11.95;;;;;;;3.41;63.85;94997.28;4990375;28;20392;-76
2022/12/18 07:10:09;;;;;;;39.03;22.90;;;;;;;3.26;63.42;95002.28;4990757;28;20492;-73
2022/12/18 07:12:35;;;;;;;31.83;20.00;;;;;;;3.34;63.55;95005.31;4987932;28;20693;-76
2022/12/18 07:15:00;;;;;;;26.83;16.30;;;;;;;3.34;63.88;94997.44;4990549;28;20073;-75
2022/12/18 07:17:26;;;;;;;16.40;11.48;;;;;;;3.30;64.49;94998.94;4988777;28;20141;-75
2022/12/18 07:19:51;;;;;;;19.35;12.63;;;;;;;3.28;63.68;95002.84;4982003;28;20072;-74
2022/12/18 07:22:17;;;;;;;14.70;10.70;;;;;;;3.19;63.76;95012.16;4984447;28;20046;-74
2022/12/18 07:24:42;;;;;;;17.52;11.48;;;;;;;3.18;63.54;95002.69;4987332;28;20472;-74
2022/12/18 07:27:07;;;;;;;16.42;11.10;;;;;;;3.09;64.17;95001.47;4992716;28;20057;-74
2022/12/18 07:29:33;;;;;;;12.45;9.27;;;;;;;3.07;62.91;95012.22;4990136;28;20179;-74
2022/12/18 07:31:58;;;;;;;13.82;9.13;;;;;;;2.99;63.08;95024.97;4987691;28;20141;-73
2022/12/18 07:34:24;;;;;;;13.40;8.38;;;;;;;2.92;63.47;95025.91;4990837;28;20046;-74
2022/12/18 07:36:49;;;;;;;16.48;10.68;;;;;;;2.95;64.57;95024.63;4986334;28;20125;-72
2022/12/18 07:39:14;;;;;;;15.00;11.13;;;;;;;3.00;64.78;95022.09;4988477;28;20076;-74
2022/12/18 07:41:45;;;;;;;15.25;9.18;;;;;;;3.18;64.35;95029.78;4988582;28;20053;-72
2022/12/18 07:44:12;;;;;;;15.52;10.10;;;;;;;3.23;64.51;95037.72;4991405;28;20591;-74
2022/12/18 07:46:38;;;;;;;13.10;9.25;;;;;;;3.23;63.21;95029.84;4983915;28;20072;-74
2022/12/18 07:49:03;;;;;;;12.20;8.90;;;;;;;3.29;63.12;95028.91;5001610;28;20030;-73
2022/12/18 07:51:29;;;;;;;14.60;9.25;;;;;;;3.21;63.31;95031.13;4989022;28;20092;-73
2022/12/18 07:53:54;;;;;;;16.58;10.73;;;;;;;3.23;63.00;95037.72;4990134;28;20025;-72
2022/12/18 07:56:20;;;;;;;19.75;15.85;;;;;;;3.25;62.57;95045.38;4989863;28;20034;-74
2022/12/18 07:58:48;;;;;;;16.00;10.15;;;;;;;3.25;62.88;95040.94;4986787;28;20263;-74
2022/12/18 08:01:14;;;;;;;17.63;11.43;;;;;;;3.29;62.33;95036.78;5003287;28;20493;-71
2022/12/18 08:03:40;;;;;;;17.08;12.02;;;;;;;3.44;61.67;95022.28;4989529;28;20120;-73
2022/12/18 08:06:09;;;;;;;23.42;12.70;;;;;;;3.52;62.39;95041.13;4987420;28;20032;-72
2022/12/18 08:08:35;;;;;;;23.25;14.15;;;;;;;3.64;62.47;95054.19;4988731;28;20084;-72
2022/12/18 08:11:00;;;;;;;26.20;16.55;;;;;;;3.67;63.22;95058.97;4985433;28;20081;-75
2022/12/18 08:13:26;;;;;;;25.30;17.33;;;;;;;3.48;63.63;95060.25;4990664;28;20041;-72
2022/12/18 08:15:58;;;;;;;26.85;17.00;;;;;;;3.30;63.89;95048.09;4991193;28;21555;-72
2022/12/18 08:18:24;;;;;;;25.90;16.88;;;;;;;3.62;63.55;95074.69;4990185;28;20025;-72
2022/12/18 08:20:49;;;;;;;26.27;17.80;;;;;;;3.69;62.04;95067.41;4992255;28;20475;-73
2022/12/18 08:23:15;;;;;;;27.25;17.42;;;;;;;3.83;61.41;95076.59;4989007;28;20068;-74
2022/12/18 08:25:40;;;;;;;25.05;15.75;;;;;;;3.89;62.10;95082.72;4989683;28;20116;-74
2022/12/18 08:28:05;;;;;;;37.55;19.40;;;;;;;3.86;62.70;95089.28;4990360;28;20042;-73
2022/12/18 08:30:31;;;;;;;39.25;22.95;;;;;;;3.90;62.05;95082.50;4992024;28;20305;-73
2022/12/18 08:32:56;;;;;;;30.45;19.35;;;;;;;3.74;62.58;95072.75;4993329;28;20712;-74
2022/12/18 08:35:22;;;;;;;29.27;17.55;;;;;;;3.78;61.97;95085.19;4990075;28;20127;-73
2022/12/18 08:37:47;;;;;;;31.50;18.42;;;;;;;3.74;62.24;95091.97;4993032;28;20128;-75
2022/12/18 08:40:13;;;;;;;28.35;18.63;;;;;;;3.71;62.04;95076.69;4990443;28;20058;-74
2022/12/18 08:45:22;;;;;;;24.23;16.23;;;;;;;3.98;62.16;95089.97;4988047;28;20032;-73
2022/12/18 08:47:47;;;;;;;29.95;19.38;;;;;;;3.84;62.46;95094.78;4993752;28;20045;-73
2022/12/18 08:50:12;;;;;;;33.72;19.70;;;;;;;4.00;62.55;95101.06;4990366;28;20037;-74
2022/12/18 08:52:38;;;;;;;37.25;20.55;;;;;;;3.94;62.12;95096.75;4992304;28;20038;-73
2022/12/18 08:55:04;;;;;;;35.65;21.15;;;;;;;3.99;62.29;95103.94;5005767;28;20481;-73
2022/12/18 08:57:29;;;;;;;43.97;23.63;;;;;;;3.91;62.08;95094.63;4988252;28;20496;-73
2022/12/18 08:59:55;;;;;;;39.10;23.52;;;;;;;3.88;62.58;95086.38;4989592;28;20029;-73
2022/12/18 09:02:20;;;;;;;35.25;20.65;;;;;;;3.94;61.94;95104.66;4990646;28;20124;-73
2022/12/18 09:04:47;;;;;;;37.10;21.63;;;;;;;3.94;61.98;95088.88;4994071;28;20034;-74
2022/12/18 09:07:13;;;;;;;38.50;21.98;;;;;;;4.13;60.96;95090.22;4991430;28;20045;-73
2022/12/18 09:09:38;;;;;;;36.83;22.30;;;;;;;3.94;61.26;95059.13;4991806;28;20125;-73
2022/12/18 09:12:03;;;;;;;31.25;20.58;;;;;;;3.84;61.31;95075.56;4993495;28;20096;-73
2022/12/18 09:14:29;;;;;;;43.30;22.38;;;;;;;3.92;61.99;95092.75;4985301;28;20061;-75
2022/12/18 09:16:54;;;;;;;35.00;20.92;;;;;;;3.91;61.05;95078.84;4992509;28;20460;-73
2022/12/18 09:19:20;;;;;;;34.45;20.98;;;;;;;3.73;60.63;95079.84;4992156;28;20073;-74
2022/12/18 09:21:45;;;;;;;35.05;21.45;;;;;;;3.84;61.48;95086.09;4989457;28;20483;-73
2022/12/18 09:24:14;;;;;;;37.88;22.30;;;;;;;3.82;61.56;95096.03;4988648;28;20538;-73
2022/12/18 09:26:40;;;;;;;35.00;23.13;;;;;;;3.70;61.70;95082.19;4992426;28;20405;-73
2022/12/18 09:29:07;;;;;;;36.72;24.05;;;;;;;3.91;61.97;95091.19;4991069;28;20291;-73
2022/12/18 09:31:32;;;;;;;39.05;22.88;;;;;;;3.92;62.61;95096.19;4988786;28;20152;-73
2022/12/18 09:33:58;;;;;;;38.05;23.00;;;;;;;3.83;61.87;95089.75;4989712;28;21050;-73
2022/12/18 09:36:23;;;;;;;36.33;21.50;;;;;;;3.95;61.63;95094.94;5004621;28;20586;-73
2022/12/18 09:38:49;;;;;;;34.45;20.95;;;;;;;3.98;61.19;95095.25;4993903;28;20025;-73
2022/12/18 09:41:33;;;;;;;34.45;22.70;;;;;;;4.14;61.30;95091.81;4998197;28;20054;-75
2022/12/18 09:44:31;;;;;;;41.97;25.23;;;;;;;4.19;60.68;95098.97;4992804;28;20046;-75
2022/12/18 09:47:23;;;;;;;36.78;22.20;;;;;;;3.99;61.43;95088.94;4988968;28;20397;-74
2022/12/18 09:50:16;;;;;;;38.72;20.85;;;;;;;3.91;61.24;95086.72;4990969;28;20413;-73
2022/12/18 09:52:49;;;;;;;34.92;22.27;;;;;;;3.88;61.02;95081.13;4986129;28;20038;-72
2022/12/18 09:55:36;;;;;;;39.10;26.15;;;;;;;3.82;62.08;95096.84;4988137;28;20089;-75
2022/12/18 09:58:30;;;;;;;47.92;30.25;;;;;;;3.50;60.60;95045.81;4992189;28;20096;-73
2022/12/18 10:00:55;;;;;;;38.25;23.50;;;;;;;3.71;60.76;95073.25;4980858;28;20057;-75
2022/12/18 10:03:21;;;;;;;27.13;16.15;;;;;;;3.96;59.52;95086.81;4988169;28;20038;-73
2022/12/18 10:06:13;;;;;;;25.65;15.65;;;;;;;3.83;59.80;95084.47;4989134;28;20034;-73
2022/12/18 10:09:03;;;;;;;29.73;17.98;;;;;;;3.84;60.39;95088.72;4969731;28;20038;-74
2022/12/18 10:11:48;;;;;;;30.92;19.10;;;;;;;3.81;61.07;95087.38;4989259;28;20073;-74
2022/12/18 10:14:30;;;;;;;30.65;18.88;;;;;;;3.68;61.41;95092.13;4987554;28;20053;-74
2022/12/18 10:17:07;;;;;;;32.10;19.05;;;;;;;3.84;60.08;95091.34;4984914;28;20451;-74
2022/12/18 10:19:33;;;;;;;32.75;19.80;;;;;;;3.80;59.69;95100.75;4990276;28;20042;-73
2022/12/18 10:22:18;;;;;;;43.25;24.73;;;;;;;3.83;59.68;95095.81;4991922;28;20441;-74
2022/12/18 10:25:05;;;;;;;30.92;20.73;;;;;;;3.83;59.79;95100.28;4984962;28;20068;-74
2022/12/18 10:27:30;;;;;;;;;;;;;;;3.89;58.75;95096.69;4994676;28;20049;-73
2022/12/18 10:29:56;;;;;;;29.80;17.17;;;;;;;3.92;58.95;95101.47;4992794;28;20486;-72
2022/12/18 10:32:25;;;;;;;28.90;17.63;;;;;;;3.92;58.78;95098.03;4991906;28;20545;-74
2022/12/18 10:34:54;;;;;;;26.30;18.05;;;;;;;3.95;59.08;95105.47;4990796;28;20425;-73
2022/12/18 10:37:22;;;;;;;33.05;18.40;;;;;;;3.77;59.13;95074.94;4989105;28;20041;-74
2022/12/18 10:40:08;;;;;;;27.17;16.70;;;;;;;3.90;57.91;95106.19;4990240;28;20049;-74
2022/12/18 10:42:34;;;;;;;30.67;20.55;;;;;;;3.82;57.87;95085.50;4990671;28;20068;-73
2022/12/18 10:45:11;;;;;;;63.38;47.53;;;;;;;3.74;58.52;95101.72;4987858;28;20464;-72
2022/12/18 10:47:41;;;;;;;33.03;21.08;;;;;;;3.57;58.13;95093.81;4991317;28;20042;-72
2022/12/18 10:50:29;;;;;;;27.10;16.35;;;;;;;3.43;57.80;95091.72;4990279;28;20265;-73
2022/12/18 10:52:57;;;;;;;35.47;22.95;;;;;;;3.27;59.19;95083.56;4992407;28;20759;-74
2022/12/18 10:55:24;;;;;;;131.45;101.72;;;;;;;3.46;58.81;95104.41;4989085;28;20088;-75
2022/12/18 10:57:49;;;;;;;31.23;20.13;;;;;;;3.53;57.41;95094.50;4994161;28;20049;-75
2022/12/18 11:00:33;;;;;;;47.42;29.95;;;;;;;3.29;57.71;95094.63;4988556;28;20026;-74
2022/12/18 11:02:58;;;;;;;69.50;47.55;;;;;;;3.40;57.59;95096.41;4990008;28;20678;-72
2022/12/18 11:05:36;;;;;;;36.65;22.60;;;;;;;3.12;57.53;95083.28;4986903;28;20046;-73
2022/12/18 11:08:02;;;;;;;27.48;16.38;;;;;;;3.24;57.48;95102.44;4988806;28;20412;-75
2022/12/18 11:10:31;;;;;;;138.18;97.25;;;;;;;3.33;57.36;95106.28;4992076;28;20113;-79
2022/12/18 11:13:15;;;;;;;29.33;20.10;;;;;;;3.50;56.24;95100.25;4989393;28;20535;-74
2022/12/18 11:15:41;;;;;;;35.75;25.70;;;;;;;3.42;57.03;95098.81;4990331;28;20050;-72
2022/12/18 11:18:17;;;;;;;29.33;20.80;;;;;;;3.43;57.31;95099.63;4992078;28;20575;-74
2022/12/18 11:20:51;;;;;;;31.40;20.60;;;;;;;3.50;56.10;95110.78;4989927;28;20041;-73
2022/12/18 11:23:18;;;;;;;24.40;16.88;;;;;;;3.49;55.67;95111.81;4989163;28;20133;-73
2022/12/18 11:25:53;;;;;;;25.73;18.45;;;;;;;3.20;56.09;95111.81;4988426;28;20033;-73
2022/12/18 11:28:42;;;;;;;21.35;14.40;;;;;;;3.18;56.55;95110.47;4991100;28;20457;-74
2022/12/18 11:31:30;;;;;;;40.72;27.55;;;;;;;3.18;56.70;95108.66;4993305;28;20977;-73
2022/12/18 11:33:59;;;;;;;27.20;18.92;;;;;;;3.05;56.58;95098.41;4993829;28;20443;-75
2022/12/18 11:36:28;;;;;;;24.70;16.63;;;;;;;3.25;55.49;95101.41;4992662;28;20061;-74
2022/12/18 11:38:55;;;;;;;24.88;17.33;;;;;;;3.20;55.67;95103.94;4991459;28;20396;-75
2022/12/18 11:42:08;;;;;;;25.35;17.35;;;;;;;3.18;55.96;95111.28;4992449;28;20026;-75
2022/12/18 11:44:19;;;;;;;32.15;21.90;;;;;;;3.22;55.29;95106.34;4992436;28;20504;-75
2022/12/18 11:46:53;;;;;;;20.67;14.25;;;;;;;3.16;54.36;95100.19;4987121;28;20057;-75
2022/12/18 11:49:25;;;;;;;28.33;20.67;;;;;;;3.28;54.36;95111.44;4993951;28;20117;-75